createdAt,value
2023-05-20T00:00:56.685Z,3.60
2023-05-20T00:01:56.694Z,6.00
2023-05-20T00:02:56.726Z,2.70
2023-05-20T00:03:56.858Z,2.30
2023-05-20T00:04:56.715Z,2.80
2023-05-20T00:05:56.621Z,2.80
2023-05-20T00:06:56.603Z,3.90
2023-05-20T00:07:56.629Z,2.40
2023-05-20T00:08:56.645Z,3.30
2023-05-20T00:09:56.619Z,2.70
2023-05-20T00:10:56.607Z,2.30
2023-05-20T00:11:56.568Z,2.60
2023-05-20T00:12:56.565Z,2.50
2023-05-20T00:13:56.621Z,5.90
2023-05-20T00:14:56.576Z,2.80
2023-05-20T00:15:56.555Z,2.70
2023-05-20T00:16:56.661Z,4.30
2023-05-20T00:17:56.591Z,2.80
2023-05-20T00:18:56.548Z,5.10
2023-05-20T00:19:56.496Z,2.90
2023-05-20T00:20:56.524Z,4.60
2023-05-20T00:21:56.503Z,3.70
2023-05-20T00:22:56.500Z,2.50
2023-05-20T00:23:56.520Z,7.40
2023-05-20T00:24:56.462Z,8.80
2023-05-20T00:25:58.448Z,2.80
2023-05-20T00:26:56.478Z,6.40
2023-05-20T00:27:56.437Z,7.80
2023-05-20T00:28:56.479Z,3.30
2023-05-20T00:29:56.450Z,3.00
2023-05-20T00:30:56.435Z,2.70
2023-05-20T00:31:56.443Z,3.50
2023-05-20T00:32:56.537Z,3.70
2023-05-20T00:33:56.398Z,5.20
2023-05-20T00:34:56.440Z,3.30
2023-05-20T00:35:56.402Z,3.50
2023-05-20T00:36:56.386Z,2.80
2023-05-20T00:37:56.376Z,2.80
2023-05-20T00:38:56.465Z,2.80
2023-05-20T00:39:56.356Z,7.20
2023-05-20T00:40:56.356Z,6.60
2023-05-20T00:41:56.329Z,2.80
2023-05-20T00:42:56.358Z,2.50
2023-05-20T00:43:56.342Z,2.70
2023-05-20T00:44:56.319Z,11.70
2023-05-20T00:45:56.422Z,3.80
2023-05-20T00:46:56.341Z,2.50
2023-05-20T00:47:56.463Z,2.60
2023-05-20T00:48:56.872Z,3.40
2023-05-20T00:49:56.278Z,2.90
2023-05-20T00:50:56.829Z,2.70
2023-05-20T00:51:56.282Z,3.00
2023-05-20T00:52:56.258Z,6.10
2023-05-20T00:53:56.256Z,2.80
2023-05-20T00:54:56.320Z,8.50
2023-05-20T00:55:56.226Z,3.30
2023-05-20T00:56:56.218Z,4.00
2023-05-20T00:57:56.224Z,5.10
2023-05-20T00:58:56.192Z,2.50
2023-05-20T00:59:56.211Z,2.50
2023-05-20T01:00:56.212Z,2.80
2023-05-20T01:01:56.187Z,6.00
2023-05-20T01:02:56.227Z,3.70
2023-05-20T01:03:56.181Z,2.80
2023-05-20T01:04:56.154Z,2.70
2023-05-20T01:05:56.156Z,2.90
2023-05-20T01:06:56.171Z,3.10
2023-05-20T01:07:56.156Z,2.90
2023-05-20T01:08:56.131Z,3.20
2023-05-20T01:09:56.152Z,6.00
2023-05-20T01:10:56.124Z,9.90
2023-05-20T01:11:56.105Z,2.80
2023-05-20T01:12:56.142Z,3.30
2023-05-20T01:13:56.115Z,3.70
2023-05-20T01:14:56.068Z,2.90
2023-05-20T01:15:56.117Z,8.20
2023-05-20T01:16:56.053Z,7.40
2023-05-20T01:17:56.093Z,5.10
2023-05-20T01:18:56.168Z,3.30
2023-05-20T01:19:56.073Z,3.30
2023-05-20T01:20:56.010Z,3.20
2023-05-20T01:21:56.000Z,3.50
2023-05-20T01:22:56.043Z,4.60
2023-05-20T01:23:56.023Z,3.20
2023-05-20T01:24:55.967Z,3.90
2023-05-20T01:25:55.978Z,3.90
2023-05-20T01:26:55.980Z,5.70
2023-05-20T01:27:55.958Z,3.90
2023-05-20T01:28:55.986Z,3.30
2023-05-20T01:29:55.958Z,3.30
2023-05-20T01:30:55.988Z,6.90
2023-05-20T01:31:56.034Z,3.00
2023-05-20T01:32:55.941Z,3.00
2023-05-20T01:33:55.941Z,9.30
2023-05-20T01:34:55.894Z,3.40
2023-05-20T01:35:55.908Z,3.40
2023-05-20T01:36:55.886Z,4.20
2023-05-20T01:37:55.894Z,3.20
2023-05-20T01:38:55.913Z,3.90
2023-05-20T01:39:55.897Z,3.70
2023-05-20T01:40:55.888Z,3.00
2023-05-20T01:41:55.842Z,3.20
2023-05-20T01:42:55.890Z,2.70
2023-05-20T01:43:55.827Z,3.80
2023-05-20T01:44:55.848Z,3.20
2023-05-20T01:45:55.855Z,3.30
2023-05-20T01:46:55.869Z,5.50
2023-05-20T01:47:55.829Z,3.40
2023-05-20T01:48:55.793Z,4.10
2023-05-20T01:49:55.803Z,3.10
2023-05-20T01:50:55.799Z,3.30
2023-05-20T01:51:55.758Z,3.30
2023-05-20T01:52:55.780Z,3.90
2023-05-20T01:53:55.760Z,3.70
2023-05-20T01:54:55.750Z,3.30
2023-05-20T01:55:55.773Z,3.00
2023-05-20T01:56:55.747Z,4.60
2023-05-20T01:57:55.719Z,5.60
2023-05-20T01:58:55.735Z,5.50
2023-05-20T01:59:55.702Z,7.20
2023-05-20T02:00:55.758Z,5.50
2023-05-20T02:01:55.758Z,4.40
2023-05-20T02:02:55.731Z,3.40
2023-05-20T02:03:55.688Z,3.10
2023-05-20T02:04:55.664Z,3.00
2023-05-20T02:05:55.708Z,3.50
2023-05-20T02:06:55.681Z,4.40
2023-05-20T02:07:55.690Z,3.20
2023-05-20T02:08:55.673Z,3.20
2023-05-20T02:09:55.625Z,6.00
2023-05-20T02:10:55.651Z,4.00
2023-05-20T02:11:55.657Z,3.50
2023-05-20T02:12:55.625Z,4.80
2023-05-20T02:13:55.626Z,5.10
2023-05-20T02:14:55.590Z,3.50
2023-05-20T02:15:55.587Z,3.40
2023-05-20T02:16:55.611Z,5.30
2023-05-20T02:17:55.602Z,3.20
2023-05-20T02:18:55.625Z,7.00
2023-05-20T02:19:55.567Z,3.10
2023-05-20T02:20:55.539Z,3.10
2023-05-20T02:21:55.533Z,3.10
2023-05-20T02:22:55.541Z,2.90
2023-05-20T02:23:55.600Z,2.80
2023-05-20T02:24:55.526Z,6.30
2023-05-20T02:25:55.511Z,3.00
2023-05-20T02:26:55.502Z,3.30
2023-05-20T02:27:55.469Z,3.00
2023-05-20T02:28:55.502Z,5.30
2023-05-20T02:29:55.496Z,5.80
2023-05-20T02:30:55.455Z,3.20
2023-05-20T02:31:55.447Z,3.10
2023-05-20T02:32:55.445Z,3.10
2023-05-20T02:33:55.474Z,3.90
2023-05-20T02:34:55.426Z,3.50
2023-05-20T02:35:55.413Z,3.50
2023-05-20T02:36:56.446Z,3.60
2023-05-20T02:37:55.406Z,5.50
2023-05-20T02:38:55.417Z,3.80
2023-05-20T02:39:55.411Z,4.10
2023-05-20T02:40:55.380Z,3.80
2023-05-20T02:41:55.362Z,3.70
2023-05-20T02:42:55.367Z,6.70
2023-05-20T02:43:55.353Z,3.40
2023-05-20T02:44:55.382Z,4.20
2023-05-20T02:45:55.364Z,4.10
2023-05-20T02:46:55.329Z,10.30
2023-05-20T02:47:55.362Z,3.80
2023-05-20T02:48:55.316Z,4.50
2023-05-20T02:49:56.341Z,3.60
2023-05-20T02:50:55.302Z,3.80
2023-05-20T02:51:55.291Z,5.30
2023-05-20T02:52:55.309Z,3.90
2023-05-20T02:53:55.267Z,6.20
2023-05-20T02:54:55.281Z,3.90
2023-05-20T02:55:55.280Z,3.50
2023-05-20T02:56:55.294Z,3.60
2023-05-20T02:57:55.239Z,3.70
2023-05-20T02:58:55.264Z,5.80
2023-05-20T02:59:55.238Z,3.50
2023-05-20T03:00:55.230Z,4.70
2023-05-20T03:01:55.289Z,6.90
2023-05-20T03:02:55.265Z,3.50
2023-05-20T03:03:56.247Z,4.60
2023-05-20T03:04:55.440Z,4.40
2023-05-20T03:05:55.202Z,7.10
2023-05-20T03:06:55.189Z,3.20
2023-05-20T03:07:55.201Z,3.90
2023-05-20T03:08:55.153Z,3.50
2023-05-20T03:09:55.165Z,3.50
2023-05-20T03:10:55.190Z,3.60
2023-05-20T03:11:55.149Z,3.00
2023-05-20T03:12:55.207Z,3.50
2023-05-20T03:13:55.138Z,3.50
2023-05-20T03:14:55.133Z,4.90
2023-05-20T03:15:55.159Z,4.60
2023-05-20T03:16:55.151Z,3.60
2023-05-20T03:17:55.138Z,4.80
2023-05-20T03:18:55.084Z,3.40
2023-05-20T03:19:55.086Z,4.10
2023-05-20T03:20:55.076Z,4.50
2023-05-20T03:21:55.067Z,4.00
2023-05-20T03:22:55.046Z,3.90
2023-05-20T03:23:55.080Z,3.90
2023-05-20T03:24:55.036Z,3.80
2023-05-20T03:25:55.028Z,3.90
2023-05-20T03:26:55.012Z,3.90
2023-05-20T03:27:55.002Z,4.50
2023-05-20T03:28:55.036Z,9.30
2023-05-20T03:29:55.004Z,4.60
2023-05-20T03:30:55.030Z,6.70
2023-05-20T03:31:55.064Z,4.30
2023-05-20T03:32:55.015Z,4.20
2023-05-20T03:33:54.985Z,4.60
2023-05-20T03:34:54.966Z,3.90
2023-05-20T03:35:54.962Z,9.00
2023-05-20T03:36:54.922Z,4.00
2023-05-20T03:37:54.914Z,4.30
2023-05-20T03:38:54.943Z,5.00
2023-05-20T03:39:54.889Z,4.10
2023-05-20T03:40:54.882Z,4.90
2023-05-20T03:41:54.885Z,4.70
2023-05-20T03:42:54.873Z,4.20
2023-05-20T03:43:54.907Z,4.20
2023-05-20T03:44:54.886Z,4.50
2023-05-20T03:45:54.864Z,4.70
2023-05-20T03:46:54.882Z,4.50
2023-05-20T03:47:54.866Z,7.70
2023-05-20T03:48:54.843Z,3.80
2023-05-20T03:49:54.851Z,4.80
2023-05-20T03:50:54.814Z,5.10
2023-05-20T03:51:54.821Z,4.70
2023-05-20T03:52:54.841Z,4.20
2023-05-20T03:53:54.814Z,6.30
2023-05-20T03:54:54.776Z,4.70
2023-05-20T03:55:54.794Z,4.40
2023-05-20T03:56:54.814Z,4.50
2023-05-20T03:57:54.773Z,4.90
2023-05-20T03:58:54.773Z,4.50
2023-05-20T03:59:54.764Z,4.50
2023-05-20T04:00:54.766Z,4.70
2023-05-20T04:01:54.757Z,4.50
2023-05-20T04:02:54.886Z,6.40
2023-05-20T04:03:54.735Z,4.90
2023-05-20T04:04:54.732Z,4.60
2023-05-20T04:05:54.762Z,4.80
2023-05-20T04:06:54.684Z,5.00
2023-05-20T04:07:54.713Z,4.40
2023-05-20T04:08:54.683Z,4.80
2023-05-20T04:09:54.706Z,4.80
2023-05-20T04:10:54.683Z,6.00
2023-05-20T04:11:54.644Z,4.90
2023-05-20T04:12:54.685Z,4.70
2023-05-20T04:13:54.681Z,5.30
2023-05-20T04:14:54.629Z,4.70
2023-05-20T04:15:54.632Z,5.50
2023-05-20T04:16:54.647Z,4.70
2023-05-20T04:17:54.687Z,8.00
2023-05-20T04:18:54.635Z,5.00
2023-05-20T04:19:55.418Z,7.20
2023-05-20T04:20:54.598Z,4.80
2023-05-20T04:21:54.586Z,4.70
2023-05-20T04:22:54.581Z,5.00
2023-05-20T04:23:54.607Z,5.10
2023-05-20T04:24:54.593Z,4.70
2023-05-20T04:25:54.533Z,4.80
2023-05-20T04:26:54.534Z,8.60
2023-05-20T04:27:54.527Z,5.00
2023-05-20T04:28:54.555Z,4.90
2023-05-20T04:29:54.523Z,5.20
2023-05-20T04:30:54.503Z,4.70
2023-05-20T04:31:54.527Z,4.90
2023-05-20T04:32:54.532Z,4.70
2023-05-20T04:33:54.519Z,4.50
2023-05-20T04:34:54.458Z,5.20
2023-05-20T04:35:54.459Z,4.90
2023-05-20T04:36:54.434Z,6.50
2023-05-20T04:37:54.451Z,8.20
2023-05-20T04:38:54.473Z,5.10
2023-05-20T04:39:54.480Z,4.50
2023-05-20T04:40:54.433Z,4.70
2023-05-20T04:41:54.418Z,4.70
2023-05-20T04:42:54.408Z,4.70
2023-05-20T04:43:54.429Z,5.10
2023-05-20T04:44:54.417Z,7.40
2023-05-20T04:45:54.388Z,5.20
2023-05-20T04:46:54.493Z,5.60
2023-05-20T04:47:54.410Z,4.80
2023-05-20T04:48:54.363Z,4.90
2023-05-20T04:49:54.383Z,5.50
2023-05-20T04:50:54.361Z,4.70
2023-05-20T04:51:54.362Z,6.00
2023-05-20T04:52:54.335Z,5.00
2023-05-20T04:53:54.347Z,7.00
2023-05-20T04:54:55.332Z,7.30
2023-05-20T04:55:54.358Z,5.00
2023-05-20T04:56:54.300Z,5.10
2023-05-20T04:57:54.296Z,5.00
2023-05-20T04:58:54.300Z,5.10
2023-05-20T04:59:54.321Z,4.70
2023-05-20T05:00:54.430Z,5.70
2023-05-20T05:01:54.353Z,5.50
2023-05-20T05:02:54.288Z,4.90
2023-05-20T05:03:54.228Z,5.00
2023-05-20T05:04:54.249Z,6.10
2023-05-20T05:05:54.245Z,5.30
2023-05-20T05:06:54.193Z,5.70
2023-05-20T05:07:55.252Z,5.50
2023-05-20T05:08:54.209Z,5.30
2023-05-20T05:09:54.227Z,5.30
2023-05-20T05:10:54.360Z,5.00
2023-05-20T05:11:54.237Z,7.50
2023-05-20T05:12:55.192Z,5.10
2023-05-20T05:13:54.230Z,5.80
2023-05-20T05:14:54.144Z,5.30
2023-05-20T05:15:54.176Z,6.00
2023-05-20T05:16:55.703Z,5.70
2023-05-20T05:17:55.194Z,5.70
2023-05-20T05:18:54.132Z,9.30
2023-05-20T05:19:54.124Z,8.10
2023-05-20T05:20:54.117Z,6.90
2023-05-20T05:21:54.084Z,5.60
2023-05-20T05:22:54.103Z,6.10
2023-05-20T05:23:55.240Z,5.70
2023-05-20T05:24:54.077Z,6.00
2023-05-20T05:25:54.045Z,5.60
2023-05-20T05:26:54.064Z,5.90
2023-05-20T05:27:54.066Z,9.10
2023-05-20T05:28:55.074Z,5.70
2023-05-20T05:29:54.022Z,6.30
2023-05-20T05:30:54.040Z,5.60
2023-05-20T05:31:54.050Z,5.60
2023-05-20T05:32:54.247Z,6.30
2023-05-20T05:33:54.004Z,6.00
2023-05-20T05:34:54.018Z,6.10
2023-05-20T05:35:53.991Z,5.90
2023-05-20T05:36:53.986Z,6.00
2023-05-20T05:37:53.983Z,6.80
2023-05-20T05:38:53.958Z,5.90
2023-05-20T05:39:53.945Z,6.50
2023-05-20T05:40:53.937Z,5.70
2023-05-20T05:41:53.937Z,6.30
2023-05-20T05:42:53.946Z,6.10
2023-05-20T05:43:53.925Z,6.60
2023-05-20T05:44:53.949Z,8.70
2023-05-20T05:45:53.900Z,6.30
2023-05-20T05:46:53.950Z,6.90
2023-05-20T05:47:53.944Z,6.50
2023-05-20T05:48:53.886Z,8.10
2023-05-20T05:49:53.879Z,7.40
2023-05-20T05:50:53.869Z,6.70
2023-05-20T05:51:53.860Z,6.90
2023-05-20T05:52:53.839Z,7.00
2023-05-20T05:53:53.847Z,6.90
2023-05-20T05:54:53.863Z,6.90
2023-05-20T05:55:53.861Z,7.50
2023-05-20T05:56:53.828Z,6.70
2023-05-20T05:57:53.800Z,9.40
2023-05-20T05:58:53.805Z,10.30
2023-05-20T05:59:53.784Z,8.40
2023-05-20T06:00:53.807Z,7.80
2023-05-20T06:01:53.831Z,7.10
2023-05-20T06:02:53.976Z,7.30
2023-05-20T06:03:53.947Z,10.00
2023-05-20T06:04:53.745Z,7.60
2023-05-20T06:05:53.801Z,7.60
2023-05-20T06:06:53.763Z,7.60
2023-05-20T06:07:53.719Z,7.90
2023-05-20T06:08:53.705Z,7.60
2023-05-20T06:09:53.697Z,7.70
2023-05-20T06:10:53.700Z,7.90
2023-05-20T06:11:53.715Z,7.40
2023-05-20T06:12:53.696Z,8.00
2023-05-20T06:13:53.699Z,7.60
2023-05-20T06:14:53.668Z,9.30
2023-05-20T06:15:53.652Z,9.70
2023-05-20T06:16:53.695Z,9.50
2023-05-20T06:17:53.694Z,7.70
2023-05-20T06:18:53.694Z,7.60
2023-05-20T06:19:53.629Z,8.30
2023-05-20T06:20:53.637Z,11.50
2023-05-20T06:21:53.596Z,7.60
2023-05-20T06:22:53.626Z,8.00
2023-05-20T06:23:53.598Z,8.20
2023-05-20T06:24:53.610Z,8.90
2023-05-20T06:25:53.590Z,8.90
2023-05-20T06:26:53.619Z,9.20
2023-05-20T06:27:53.631Z,10.40
2023-05-20T06:28:53.593Z,9.70
2023-05-20T06:29:53.549Z,8.70
2023-05-20T06:30:53.600Z,8.60
2023-05-20T06:31:53.542Z,9.00
2023-05-20T06:32:53.573Z,9.30
2023-05-20T06:33:53.524Z,8.70
2023-05-20T06:34:53.508Z,8.60
2023-05-20T06:35:53.492Z,9.20
2023-05-20T06:36:53.479Z,9.40
2023-05-20T06:37:53.527Z,8.80
2023-05-20T06:38:53.530Z,9.40
2023-05-20T06:39:53.477Z,9.00
2023-05-20T06:40:53.455Z,8.90
2023-05-20T06:41:53.475Z,8.40
2023-05-20T06:42:53.455Z,9.30
2023-05-20T06:43:53.631Z,9.60
2023-05-20T06:44:54.430Z,9.20
2023-05-20T06:45:53.447Z,9.40
2023-05-20T06:46:53.468Z,9.10
2023-05-20T06:47:53.530Z,9.00
2023-05-20T06:48:53.426Z,9.20
2023-05-20T06:49:53.404Z,9.60
2023-05-20T06:50:53.416Z,9.40
2023-05-20T06:51:53.380Z,16.60
2023-05-20T06:52:53.380Z,9.80
2023-05-20T06:53:53.356Z,9.30
2023-05-20T06:54:53.465Z,9.70
2023-05-20T06:55:53.326Z,10.00
2023-05-20T06:56:54.358Z,16.20
2023-05-20T06:57:53.342Z,9.70
2023-05-20T06:58:53.332Z,10.10
2023-05-20T06:59:53.342Z,10.10
2023-05-20T07:00:53.334Z,9.60
2023-05-20T07:01:53.366Z,9.90
2023-05-20T07:02:53.483Z,10.10
2023-05-20T07:03:53.345Z,9.90
2023-05-20T07:04:53.275Z,9.70
2023-05-20T07:05:53.301Z,9.30
2023-05-20T07:06:53.285Z,10.70
2023-05-20T07:07:53.258Z,10.00
2023-05-20T07:08:53.222Z,9.90
2023-05-20T07:09:53.244Z,10.90
2023-05-20T07:10:53.252Z,15.60
2023-05-20T07:11:53.213Z,9.90
2023-05-20T07:12:53.205Z,10.50
2023-05-20T07:13:53.197Z,10.00
2023-05-20T07:14:53.221Z,9.80
2023-05-20T07:15:53.212Z,9.50
2023-05-20T07:16:53.200Z,10.00
2023-05-20T07:17:53.188Z,10.10
2023-05-20T07:18:53.214Z,10.30
2023-05-20T07:19:53.165Z,10.00
2023-05-20T07:20:53.139Z,10.30
2023-05-20T07:21:53.261Z,9.80
2023-05-20T07:22:53.117Z,10.30
2023-05-20T07:23:53.110Z,11.10
2023-05-20T07:24:53.140Z,11.00
2023-05-20T07:25:53.162Z,10.90
2023-05-20T07:26:53.103Z,11.60
2023-05-20T07:27:53.089Z,10.90
2023-05-20T07:28:53.091Z,10.80
2023-05-20T07:29:53.070Z,10.30
2023-05-20T07:30:55.396Z,10.10
2023-05-20T07:31:53.094Z,11.80
2023-05-20T07:32:53.107Z,10.60
2023-05-20T07:33:53.026Z,10.20
2023-05-20T07:34:53.052Z,10.70
2023-05-20T07:35:53.020Z,11.90
2023-05-20T07:36:52.992Z,11.20
2023-05-20T07:37:53.024Z,11.20
2023-05-20T07:39:02.952Z,12.00
2023-05-20T07:39:54.979Z,9.90
2023-05-20T07:40:52.990Z,10.60
2023-05-20T07:41:53.011Z,10.60
2023-05-20T07:42:52.990Z,10.60
2023-05-20T07:43:52.938Z,10.70
2023-05-20T07:44:52.967Z,11.00
2023-05-20T07:45:52.975Z,10.70
2023-05-20T07:46:52.945Z,11.20
2023-05-20T07:47:52.924Z,14.60
2023-05-20T07:48:52.992Z,10.90
2023-05-20T07:49:52.922Z,10.60
2023-05-20T07:50:52.920Z,10.00
2023-05-20T07:51:52.941Z,11.00
2023-05-20T07:52:56.383Z,10.80
2023-05-20T07:53:53.926Z,15.00
2023-05-20T07:54:52.883Z,11.20
2023-05-20T07:55:52.861Z,11.30
2023-05-20T07:56:52.838Z,11.20
2023-05-20T07:57:52.837Z,10.70
2023-05-20T07:58:52.819Z,10.10
2023-05-20T07:59:52.839Z,13.60
2023-05-20T08:00:52.814Z,10.70
2023-05-20T08:01:52.842Z,10.90
2023-05-20T08:02:52.919Z,11.90
2023-05-20T08:03:52.970Z,10.80
2023-05-20T08:04:52.833Z,12.50
2023-05-20T08:05:52.803Z,10.60
2023-05-20T08:06:52.747Z,11.60
2023-05-20T08:07:52.741Z,12.00
2023-05-20T08:08:52.740Z,10.80
2023-05-20T08:09:52.730Z,11.10
2023-05-20T08:10:52.820Z,11.40
2023-05-20T08:11:52.748Z,11.50
2023-05-20T08:12:52.745Z,10.50
2023-05-20T08:13:52.703Z,11.90
2023-05-20T08:14:52.688Z,11.10
2023-05-20T08:15:52.701Z,11.30
2023-05-20T08:16:54.876Z,11.50
2023-05-20T08:17:53.731Z,10.30
2023-05-20T08:18:52.702Z,12.30
2023-05-20T08:19:52.680Z,11.70
2023-05-20T08:20:52.644Z,12.00
2023-05-20T08:21:52.649Z,10.80
2023-05-20T08:22:52.640Z,11.00
2023-05-20T08:23:52.678Z,10.80
2023-05-20T08:24:52.639Z,11.30
2023-05-20T08:25:52.631Z,10.50
2023-05-20T08:26:52.588Z,11.60
2023-05-20T08:27:52.657Z,11.70
2023-05-20T08:28:52.596Z,11.40
2023-05-20T08:29:52.597Z,11.60
2023-05-20T08:30:52.596Z,11.30
2023-05-20T08:31:52.557Z,11.60
2023-05-20T08:32:52.617Z,10.60
2023-05-20T08:33:52.557Z,11.90
2023-05-20T08:34:52.550Z,11.40
2023-05-20T08:35:52.524Z,12.30
2023-05-20T08:36:52.544Z,11.00
2023-05-20T08:37:52.567Z,11.60
2023-05-20T08:38:52.543Z,11.70
2023-05-20T08:39:52.697Z,15.40
2023-05-20T08:40:52.520Z,11.30
2023-05-20T08:41:52.583Z,11.30
2023-05-20T08:42:52.465Z,11.50
2023-05-20T08:43:52.487Z,11.00
2023-05-20T08:44:52.473Z,11.60
2023-05-20T08:45:52.528Z,12.60
2023-05-20T08:46:52.532Z,12.00
2023-05-20T08:47:52.434Z,11.30
2023-05-20T08:48:52.429Z,12.00
2023-05-20T08:49:52.426Z,12.60
2023-05-20T08:50:52.410Z,11.20
2023-05-20T08:51:52.403Z,12.50
2023-05-20T08:52:52.421Z,11.90
2023-05-20T08:53:52.428Z,12.50
2023-05-20T08:54:52.388Z,10.60
2023-05-20T08:55:52.346Z,11.70
2023-05-20T08:56:52.347Z,11.70
2023-05-20T08:57:52.367Z,12.00
2023-05-20T08:58:52.375Z,12.20
2023-05-20T08:59:52.323Z,12.30
2023-05-20T09:00:52.391Z,11.20
2023-05-20T09:01:52.437Z,13.30
2023-05-20T09:02:52.351Z,11.60
2023-05-20T09:03:52.322Z,11.50
2023-05-20T09:04:52.311Z,11.60
2023-05-20T09:05:52.309Z,12.20
2023-05-20T09:06:52.299Z,11.80
2023-05-20T09:07:52.280Z,12.40
2023-05-20T09:08:52.286Z,12.40
2023-05-20T09:09:52.255Z,13.00
2023-05-20T09:10:52.270Z,11.30
2023-05-20T09:11:52.266Z,11.50
2023-05-20T09:12:52.244Z,12.10
2023-05-20T09:13:52.241Z,11.40
2023-05-20T09:14:52.224Z,11.90
2023-05-20T09:15:52.292Z,11.80
2023-05-20T09:16:52.206Z,11.20
2023-05-20T09:17:52.242Z,11.50
2023-05-20T09:18:52.317Z,11.30
2023-05-20T09:19:52.182Z,11.10
2023-05-20T09:20:52.158Z,11.40
2023-05-20T09:21:52.208Z,11.50
2023-05-20T09:22:52.172Z,10.50
2023-05-20T09:23:52.172Z,11.30
2023-05-20T09:24:52.157Z,12.40
2023-05-20T09:25:52.134Z,11.50
2023-05-20T09:26:52.136Z,10.00
2023-05-20T09:27:52.133Z,11.10
2023-05-20T09:28:52.125Z,12.90
2023-05-20T09:29:53.183Z,12.10
2023-05-20T09:30:52.094Z,11.90
2023-05-20T09:31:52.129Z,12.60
2023-05-20T09:32:52.216Z,15.00
2023-05-20T09:33:52.091Z,11.70
2023-05-20T09:34:52.045Z,12.90
2023-05-20T09:35:52.084Z,11.80
2023-05-20T09:36:52.064Z,11.00
2023-05-20T09:37:52.059Z,11.00
2023-05-20T09:38:52.056Z,11.20
2023-05-20T09:39:52.022Z,11.40
2023-05-20T09:40:52.039Z,11.70
2023-05-20T09:41:52.031Z,11.50
2023-05-20T09:42:52.025Z,11.50
2023-05-20T09:43:52.029Z,11.30
2023-05-20T09:44:51.996Z,11.50
2023-05-20T09:45:51.974Z,13.30
2023-05-20T09:46:51.968Z,11.20
2023-05-20T09:47:51.995Z,11.90
2023-05-20T09:48:54.272Z,10.50
2023-05-20T09:49:51.953Z,11.00
2023-05-20T09:50:51.930Z,11.40
2023-05-20T09:51:51.959Z,10.90
2023-05-20T09:52:51.981Z,11.30
2023-05-20T09:53:51.931Z,11.40
2023-05-20T09:54:51.928Z,11.20
2023-05-20T09:55:51.899Z,11.00
2023-05-20T09:56:51.887Z,11.10
2023-05-20T09:57:51.984Z,11.20
2023-05-20T09:58:51.880Z,11.40
2023-05-20T09:59:51.893Z,11.10
2023-05-20T10:00:51.903Z,11.70
2023-05-20T10:01:51.953Z,11.00
2023-05-20T10:02:51.935Z,11.50
2023-05-20T10:03:51.976Z,10.60
2023-05-20T10:04:51.866Z,10.90
2023-05-20T10:05:51.895Z,11.50
2023-05-20T10:06:51.818Z,10.90
2023-05-20T10:07:51.802Z,11.80
2023-05-20T10:08:51.810Z,10.80
2023-05-20T10:09:51.862Z,11.20
2023-05-20T10:10:51.804Z,11.50
2023-05-20T10:11:51.802Z,11.60
2023-05-20T10:12:51.792Z,10.80
2023-05-20T10:13:51.783Z,13.10
2023-05-20T10:14:51.787Z,10.50
2023-05-20T10:15:51.818Z,10.40
2023-05-20T10:16:51.779Z,11.00
2023-05-20T10:17:51.779Z,10.80
2023-05-20T10:18:51.778Z,10.40
2023-05-20T10:19:51.748Z,11.00
2023-05-20T10:20:51.748Z,10.80
2023-05-20T10:21:51.718Z,10.30
2023-05-20T10:22:51.720Z,10.40
2023-05-20T10:23:51.727Z,12.80
2023-05-20T10:24:51.706Z,11.60
2023-05-20T10:25:51.756Z,10.70
2023-05-20T10:26:51.684Z,10.00
2023-05-20T10:27:51.718Z,10.80
2023-05-20T10:28:51.832Z,9.70
2023-05-20T10:29:51.708Z,15.10
2023-05-20T10:30:51.682Z,10.80
2023-05-20T10:31:51.688Z,11.00
2023-05-20T10:32:51.773Z,10.20
2023-05-20T10:33:51.665Z,11.20
2023-05-20T10:34:51.632Z,10.50
2023-05-20T10:35:51.613Z,10.40
2023-05-20T10:36:51.600Z,11.10
2023-05-20T10:37:51.600Z,10.30
2023-05-20T10:38:51.594Z,12.00
2023-05-20T10:39:51.593Z,10.20
2023-05-20T10:40:51.607Z,11.70
2023-05-20T10:41:51.583Z,10.00
2023-05-20T10:42:51.614Z,10.40
2023-05-20T10:43:51.599Z,10.90
2023-05-20T10:44:51.560Z,16.30
2023-05-20T10:45:51.536Z,10.40
2023-05-20T10:47:07.044Z,10.30
2023-05-20T10:47:53.663Z,10.40
2023-05-20T10:48:51.653Z,10.10
2023-05-20T10:49:51.501Z,10.50
2023-05-20T10:50:51.544Z,10.10
2023-05-20T10:51:51.599Z,9.90
2023-05-20T10:52:51.491Z,9.50
2023-05-20T10:53:51.553Z,10.40
2023-05-20T10:54:51.903Z,11.10
2023-05-20T10:55:52.489Z,9.00
2023-05-20T10:56:51.593Z,9.50
2023-05-20T10:57:51.474Z,9.00
2023-05-20T10:58:51.444Z,9.30
2023-05-20T10:59:51.493Z,9.00
2023-05-20T11:00:51.478Z,8.90
2023-05-20T11:01:51.421Z,9.10
2023-05-20T11:02:51.479Z,8.90
2023-05-20T11:03:51.461Z,10.10
2023-05-20T11:04:51.494Z,8.80
2023-05-20T11:05:51.443Z,9.30
2023-05-20T11:06:51.441Z,9.20
2023-05-20T11:07:51.388Z,8.60
2023-05-20T11:08:51.362Z,8.30
2023-05-20T11:09:51.356Z,8.70
2023-05-20T11:10:51.396Z,8.50
2023-05-20T11:11:51.369Z,8.50
2023-05-20T11:12:51.386Z,8.70
2023-05-20T11:13:51.374Z,8.00
2023-05-20T11:14:51.314Z,8.40
2023-05-20T11:15:51.338Z,8.40
2023-05-20T11:16:51.394Z,8.30
2023-05-20T11:17:51.378Z,8.30
2023-05-20T11:18:51.412Z,8.20
2023-05-20T11:19:51.320Z,8.70
2023-05-20T11:20:51.280Z,7.90
2023-05-20T11:21:51.325Z,8.00
2023-05-20T11:22:51.279Z,8.10
2023-05-20T11:23:51.317Z,7.30
2023-05-20T11:24:51.273Z,8.60
2023-05-20T11:25:51.293Z,7.70
2023-05-20T11:26:51.297Z,7.60
2023-05-20T11:27:51.233Z,8.20
2023-05-20T11:28:51.285Z,9.00
2023-05-20T11:29:51.243Z,8.40
2023-05-20T11:30:51.330Z,7.70
2023-05-20T11:31:51.316Z,7.90
2023-05-20T11:32:51.292Z,11.10
2023-05-20T11:33:51.243Z,8.00
2023-05-20T11:34:51.272Z,8.10
2023-05-20T11:35:51.180Z,8.40
2023-05-20T11:36:51.235Z,10.40
2023-05-20T11:37:51.232Z,8.30
2023-05-20T11:38:51.318Z,8.40
2023-05-20T11:39:51.163Z,9.50
2023-05-20T11:40:51.876Z,8.40
2023-05-20T11:41:51.208Z,8.70
2023-05-20T11:42:51.217Z,8.60
2023-05-20T11:43:51.267Z,9.40
2023-05-20T11:44:51.125Z,8.40
2023-05-20T11:45:51.128Z,8.30
2023-05-20T11:46:51.092Z,9.20
2023-05-20T11:47:51.109Z,8.10
2023-05-20T11:48:51.106Z,9.00
2023-05-20T11:49:51.081Z,9.00
2023-05-20T11:50:51.060Z,8.90
2023-05-20T11:51:51.063Z,9.40
2023-05-20T11:52:51.082Z,9.20
2023-05-20T11:53:51.066Z,9.30
2023-05-20T11:54:51.033Z,9.00
2023-05-20T11:55:51.032Z,9.70
2023-05-20T11:56:51.086Z,9.20
2023-05-20T11:57:51.042Z,9.00
2023-05-20T11:58:51.085Z,8.50
2023-05-20T11:59:51.027Z,8.70
2023-05-20T12:00:55.005Z,8.40
2023-05-20T12:01:53.019Z,8.20
2023-05-20T12:02:51.090Z,8.60
2023-05-20T12:03:51.186Z,8.40
2023-05-20T12:04:51.039Z,8.90
2023-05-20T12:05:51.092Z,8.30
2023-05-20T12:06:50.943Z,9.00
2023-05-20T12:07:50.941Z,10.10
2023-05-20T12:08:50.995Z,8.50
2023-05-20T12:09:51.067Z,10.30
2023-05-20T12:10:50.918Z,8.80
2023-05-20T12:11:50.925Z,8.60
2023-05-20T12:12:50.882Z,8.70
2023-05-20T12:13:50.916Z,8.50
2023-05-20T12:14:50.907Z,9.60
2023-05-20T12:15:50.906Z,8.90
2023-05-20T12:16:50.919Z,9.00
2023-05-20T12:17:50.934Z,9.70
2023-05-20T12:18:50.914Z,11.90
2023-05-20T12:19:50.857Z,9.30
2023-05-20T12:20:50.854Z,9.40
2023-05-20T12:21:50.879Z,9.10
2023-05-20T12:22:50.829Z,9.10
2023-05-20T12:23:50.856Z,8.60
2023-05-20T12:24:50.816Z,9.20
2023-05-20T12:25:50.839Z,8.90
2023-05-20T12:26:50.820Z,9.20
2023-05-20T12:27:50.893Z,8.50
2023-05-20T12:28:50.810Z,9.50
2023-05-20T12:29:50.817Z,9.70
2023-05-20T12:30:50.808Z,10.00
2023-05-20T12:31:50.976Z,9.00
2023-05-20T12:32:50.944Z,10.30
2023-05-20T12:33:50.827Z,9.10
2023-05-20T12:34:50.784Z,9.20
2023-05-20T12:35:50.755Z,9.40
2023-05-20T12:36:50.760Z,10.20
2023-05-20T12:37:50.729Z,10.80
2023-05-20T12:38:50.833Z,10.00
2023-05-20T12:39:50.724Z,10.10
2023-05-20T12:40:50.752Z,10.20
2023-05-20T12:41:50.992Z,12.10
2023-05-20T12:42:50.679Z,11.40
2023-05-20T12:43:50.717Z,11.30
2023-05-20T12:44:50.663Z,11.40
2023-05-20T12:45:50.681Z,10.90
2023-05-20T12:46:50.714Z,12.00
2023-05-20T12:47:50.706Z,11.70
2023-05-20T12:48:50.632Z,11.60
2023-05-20T12:49:50.650Z,11.40
2023-05-20T12:50:50.651Z,12.30
2023-05-20T12:51:50.623Z,12.90
2023-05-20T12:52:50.615Z,10.90
2023-05-20T12:53:50.658Z,12.20
2023-05-20T12:54:50.606Z,11.80
2023-05-20T12:55:50.596Z,11.40
2023-05-20T12:56:50.667Z,12.20
2023-05-20T12:57:50.570Z,11.90
2023-05-20T12:58:50.587Z,11.40
2023-05-20T12:59:50.577Z,12.10
2023-05-20T13:00:50.597Z,11.40
2023-05-20T13:01:50.608Z,12.00
2023-05-20T13:02:50.588Z,11.30
2023-05-20T13:03:50.674Z,11.10
2023-05-20T13:04:50.520Z,11.30
2023-05-20T13:05:50.505Z,11.60
2023-05-20T13:06:50.545Z,11.40
2023-05-20T13:07:52.982Z,11.50
2023-05-20T13:08:51.496Z,10.70
2023-05-20T13:09:50.466Z,11.90